createdAt,value
2022-12-05T00:01:48.972Z,101207.34
2022-12-05T00:04:16.782Z,101206.06
2022-12-05T00:06:44.711Z,101207.34
2022-12-05T00:09:14.336Z,101200.03
2022-12-05T00:11:44.101Z,101206.31
2022-12-05T00:14:13.199Z,101202.13
2022-12-05T00:16:44.100Z,101204.84
2022-12-05T00:19:14.375Z,101209.81
2022-12-05T00:21:42.929Z,101208.59
2022-12-05T00:24:14.208Z,101209.19
2022-12-05T00:26:42.101Z,101212.75
2022-12-05T00:29:09.734Z,101206.69
2022-12-05T00:31:37.545Z,101215.84
2022-12-05T00:34:06.670Z,101208.38
2022-12-05T00:36:35.814Z,101220.03
2022-12-05T00:39:08.812Z,101213.13
2022-12-05T00:41:36.495Z,101217.50
2022-12-05T00:44:05.230Z,101214.19
2022-12-05T00:46:33.996Z,101220.66
2022-12-05T00:49:03.157Z,101215.22
2022-12-05T00:51:34.399Z,101208.97
2022-12-05T00:54:05.274Z,101218.13
2022-12-05T00:56:33.633Z,101218.16
2022-12-05T00:59:02.749Z,101210.84
2022-12-05T01:01:33.515Z,101212.09
2022-12-05T01:04:03.218Z,101207.97
2022-12-05T01:06:32.213Z,101205.00
2022-12-05T01:09:00.205Z,101202.75
2022-12-05T01:11:28.619Z,101201.50
2022-12-05T01:13:57.209Z,101207.09
2022-12-05T01:16:26.688Z,101204.19
2022-12-05T01:18:55.279Z,101202.13
2022-12-05T01:21:23.351Z,101202.09
2022-12-05T01:23:52.648Z,101196.69
2022-12-05T01:26:22.695Z,101195.84
2022-12-05T01:28:50.985Z,101201.06
2022-12-05T01:31:23.383Z,101196.47
2022-12-05T01:33:52.062Z,101200.22
2022-12-05T01:36:20.126Z,101198.34
2022-12-05T01:38:47.755Z,101192.94
2022-12-05T01:41:19.489Z,101197.94
2022-12-05T01:43:59.329Z,101196.69
2022-12-05T01:46:28.905Z,101196.88
2022-12-05T01:49:03.135Z,101194.38
2022-12-05T01:51:31.747Z,101193.13
2022-12-05T01:54:00.529Z,101197.72
2022-12-05T01:56:29.918Z,101192.94
2022-12-05T01:58:58.069Z,101198.75
2022-12-05T02:01:25.733Z,101191.66
2022-12-05T02:03:58.383Z,101187.72
2022-12-05T02:06:27.692Z,101195.03
2022-12-05T02:08:56.332Z,101182.72
2022-12-05T02:11:27.815Z,101194.78
2022-12-05T02:14:17.635Z,101194.59
2022-12-05T02:16:56.042Z,101191.84
2022-12-05T02:19:48.859Z,101195.41
2022-12-05T02:22:59.751Z,101190.84
2022-12-05T02:25:54.663Z,101191.28
2022-12-05T02:28:54.639Z,101189.56
2022-12-05T02:31:28.762Z,101193.97
2022-12-05T02:34:03.662Z,101183.75
2022-12-05T02:36:37.360Z,101191.47
2022-12-05T02:39:13.278Z,101186.03
2022-12-05T02:41:46.707Z,101186.47
2022-12-05T02:44:17.105Z,101193.56
2022-12-05T02:46:49.028Z,101196.66
2022-12-05T02:49:23.287Z,101193.13
2022-12-05T02:51:54.229Z,101188.13
2022-12-05T02:54:25.299Z,101184.81
2022-12-05T02:56:53.977Z,101181.69
2022-12-05T02:59:23.688Z,101184.59
2022-12-05T03:01:53.661Z,101168.56
2022-12-05T03:04:25.658Z,101167.53
2022-12-05T03:06:58.736Z,101169.81
2022-12-05T03:09:31.474Z,101170.84
2022-12-05T03:12:06.839Z,101163.53
2022-12-05T03:14:39.205Z,101168.56
2022-12-05T03:17:14.980Z,101159.59
2022-12-05T03:19:48.775Z,101167.28
2022-12-05T03:22:21.592Z,101167.09
2022-12-05T03:24:49.817Z,101168.50
2022-12-05T03:27:24.034Z,101164.16
2022-12-05T03:29:57.411Z,101171.22
2022-12-05T03:32:37.734Z,101176.03
2022-12-05T03:35:10.267Z,101176.88
2022-12-05T03:37:47.681Z,101171.28
2022-12-05T03:40:25.152Z,101173.53
2022-12-05T03:42:58.632Z,101176.69
2022-12-05T03:45:32.809Z,101167.53
2022-12-05T03:48:11.954Z,101167.53
2022-12-05T03:50:42.607Z,101177.31
2022-12-05T03:53:20.723Z,101171.88
2022-12-05T03:55:55.779Z,101167.91
2022-12-05T03:58:27.966Z,101160.19
2022-12-05T04:01:00.529Z,101161.22
2022-12-05T04:03:39.620Z,101154.34
2022-12-05T04:06:14.939Z,101153.75
2022-12-05T04:08:47.964Z,101166.25
2022-12-05T04:11:20.603Z,101164.16
2022-12-05T04:13:51.475Z,101161.66
2022-12-05T04:16:41.533Z,101167.47
2022-12-05T04:19:18.168Z,101164.56
2022-12-05T04:21:49.356Z,101160.44
2022-12-05T04:24:38.013Z,101160.00
2022-12-05T04:27:14.871Z,101168.75
2022-12-05T04:29:51.733Z,101165.63
2022-12-05T04:32:22.104Z,101168.13
2022-12-05T04:34:56.519Z,101164.56
2022-12-05T04:37:26.414Z,101159.41
2022-12-05T04:39:58.071Z,101158.56
2022-12-05T04:42:29.877Z,101160.81
2022-12-05T04:45:09.081Z,101163.34
2022-12-05T04:47:40.350Z,101164.16
2022-12-05T04:50:14.336Z,101158.97
2022-12-05T04:52:44.086Z,101161.25
2022-12-05T04:55:14.302Z,101165.63
2022-12-05T04:57:49.501Z,101169.19
2022-12-05T05:00:17.928Z,101166.25
2022-12-05T05:02:50.418Z,101159.41
2022-12-05T05:05:21.139Z,101161.25
2022-12-05T05:07:52.023Z,101161.25
2022-12-05T05:10:27.960Z,101162.31
2022-12-05T05:12:56.215Z,101169.59
2022-12-05T05:15:23.850Z,101166.25
2022-12-05T05:17:51.480Z,101162.53
2022-12-05T05:20:27.196Z,101159.81
2022-12-05T05:22:56.145Z,101163.78
2022-12-05T05:25:24.374Z,101167.72
2022-12-05T05:27:53.117Z,101170.66
2022-12-05T05:30:21.906Z,101170.22
2022-12-05T05:32:49.745Z,101169.19
2022-12-05T05:35:17.745Z,101170.00
2022-12-05T05:37:46.798Z,101164.56
2022-12-05T05:40:14.911Z,101167.53
2022-12-05T05:42:45.861Z,101165.63
2022-12-05T05:45:15.038Z,101170.22
2022-12-05T05:47:42.997Z,101170.22
2022-12-05T05:50:15.026Z,101172.94
2022-12-05T05:52:47.066Z,101173.13
2022-12-05T05:55:14.718Z,101167.28
2022-12-05T05:57:42.364Z,101167.91
2022-12-05T06:00:11.569Z,101163.34
2022-12-05T06:02:39.343Z,101169.38
2022-12-05T06:05:08.023Z,101174.97
2022-12-05T06:07:35.763Z,101164.16
2022-12-05T06:10:06.046Z,101176.63
2022-12-05T06:12:33.667Z,101179.78
2022-12-05T06:15:01.353Z,101181.66
2022-12-05T06:17:28.982Z,101167.09
2022-12-05T06:19:57.350Z,101175.22
2022-12-05T06:22:25.188Z,101168.50
2022-12-05T06:24:52.850Z,101177.91
2022-12-05T06:27:22.015Z,101176.44
2022-12-05T06:29:49.648Z,101184.16
2022-12-05T06:32:17.544Z,101181.44
2022-12-05T06:34:45.193Z,101179.78
2022-12-05T06:37:12.815Z,101178.72
2022-12-05T06:39:40.497Z,101186.44
2022-12-05T06:42:08.146Z,101191.84
2022-12-05T06:44:37.375Z,101192.69
2022-12-05T06:47:05.243Z,101194.97
2022-12-05T06:49:37.796Z,101196.84
2022-12-05T06:52:06.091Z,101191.81
2022-12-05T06:54:33.914Z,101199.34
2022-12-05T06:57:01.583Z,101196.84
2022-12-05T06:59:29.248Z,101204.97
2022-12-05T07:01:57.230Z,101202.28
2022-12-05T07:04:25.372Z,101203.09
2022-12-05T07:06:54.449Z,101205.81
2022-12-05T07:09:44.164Z,101206.84
2022-12-05T07:12:11.909Z,101211.84
2022-12-05T07:14:47.666Z,101216.44
2022-12-05T07:17:18.422Z,101215.81
2022-12-05T07:19:47.798Z,101214.97
2022-12-05T07:22:16.332Z,101210.59
2022-12-05T07:24:44.727Z,101223.72
2022-12-05T07:27:12.480Z,101225.81
2022-12-05T07:29:40.127Z,101229.13
2022-12-05T07:32:08.281Z,101227.03
2022-12-05T07:34:38.671Z,101221.63
2022-12-05T07:37:06.419Z,101219.75
2022-12-05T07:39:34.086Z,101216.00
2022-12-05T07:42:01.728Z,101221.81
2022-12-05T07:44:29.398Z,101213.50
2022-12-05T07:46:57.073Z,101217.25
2022-12-05T07:49:24.739Z,101220.38
2022-12-05T07:51:53.907Z,101220.56
2022-12-05T07:54:21.791Z,101217.88
2022-12-05T07:56:49.533Z,101215.16
2022-12-05T07:59:17.185Z,101212.50
2022-12-05T08:01:44.976Z,101212.69
2022-12-05T08:04:15.606Z,101216.63
2022-12-05T08:06:43.992Z,101213.72
2022-12-05T08:09:13.068Z,101222.22
2022-12-05T08:11:40.881Z,101226.00
2022-12-05T08:14:08.668Z,101226.84
2022-12-05T08:16:36.377Z,101224.94
2022-12-05T08:19:05.958Z,101229.94
2022-12-05T08:21:34.498Z,101230.34
2022-12-05T08:24:04.971Z,101227.88
2022-12-05T08:26:34.662Z,101228.91
2022-12-05T08:29:04.760Z,101228.47
2022-12-05T08:31:34.302Z,101232.63
2022-12-05T08:34:02.233Z,101229.31
2022-12-05T08:36:31.744Z,101231.81
2022-12-05T08:39:01.271Z,101232.25
2022-12-05T08:41:30.168Z,101232.63
2022-12-05T08:44:01.367Z,101233.91
2022-12-05T08:46:29.194Z,101228.91
2022-12-05T08:48:56.989Z,101228.25
2022-12-05T08:51:24.700Z,101230.97
2022-12-05T08:53:52.435Z,101220.16
2022-12-05T08:56:24.990Z,101221.81
2022-12-05T08:58:58.515Z,101219.31
2022-12-05T09:01:33.237Z,101218.06
2022-12-05T09:04:02.413Z,101221.19
2022-12-05T09:06:30.592Z,101222.22
2022-12-05T09:09:00.064Z,101217.66
2022-12-05T09:11:30.053Z,101223.88
2022-12-05T09:13:59.288Z,101220.78
2022-12-05T09:16:36.579Z,101221.81
2022-12-05T09:19:06.960Z,101219.31
2022-12-05T09:21:34.639Z,101219.50
2022-12-05T09:24:02.488Z,101214.72
2022-12-05T09:26:30.885Z,101218.47
2022-12-05T09:28:58.660Z,101214.72
2022-12-05T09:31:27.974Z,101219.09
2022-12-05T09:33:56.022Z,101220.16
2022-12-05T09:36:29.071Z,101218.28
2022-12-05T09:39:00.695Z,101213.91
2022-12-05T09:42:08.164Z,101209.28
2022-12-05T09:44:49.656Z,101213.22
2022-12-05T09:47:32.612Z,101212.00
2022-12-05T09:50:05.858Z,101221.97
2022-12-05T09:52:38.955Z,101215.31
2022-12-05T09:55:15.560Z,101212.59
2022-12-05T09:57:50.320Z,101227.63
2022-12-05T10:00:19.363Z,101204.47
2022-12-05T10:02:58.741Z,101210.31
2022-12-05T10:05:32.347Z,101206.16
2022-12-05T10:08:09.166Z,101207.44
2022-12-05T10:10:49.638Z,101210.94
2022-12-05T10:13:31.821Z,101198.88
2022-12-05T10:16:04.175Z,101208.41
2022-12-05T10:18:38.901Z,101198.22
2022-12-05T10:21:15.884Z,101199.69
2022-12-05T10:23:58.639Z,101201.16
2022-12-05T10:26:31.300Z,101200.94
2022-12-05T10:29:05.210Z,101195.72
2022-12-05T10:31:37.889Z,101197.59
2022-12-05T10:34:12.794Z,101192.59
2022-12-05T10:36:40.616Z,101198.19
2022-12-05T10:39:11.689Z,101191.72
2022-12-05T10:41:39.595Z,101196.94
2022-12-05T10:44:07.381Z,101185.50
2022-12-05T10:46:35.845Z,101189.25
2022-12-05T10:49:03.877Z,101188.00
2022-12-05T10:51:37.198Z,101182.16
2022-12-05T10:54:18.255Z,101193.59
2022-12-05T10:56:47.452Z,101195.69
2022-12-05T10:59:17.376Z,101190.91
2022-12-05T11:01:49.010Z,101192.75
2022-12-05T11:04:27.288Z,101191.09
2022-12-05T11:07:00.295Z,101182.97
2022-12-05T11:09:32.173Z,101183.22
2022-12-05T11:12:14.275Z,101180.69
2022-12-05T11:14:54.013Z,101182.53
2022-12-05T11:17:27.099Z,101186.28
2022-12-05T11:19:54.759Z,101187.13
2022-12-05T11:22:32.332Z,101188.38
2022-12-05T11:25:01.528Z,101178.81
2022-12-05T11:27:31.186Z,101179.63
2022-12-05T11:30:03.036Z,101177.34
2022-12-05T11:32:32.533Z,101171.94
2022-12-05T11:35:10.007Z,101175.47
2022-12-05T11:37:44.206Z,101184.59
2022-12-05T11:40:22.733Z,101179.00
2022-12-05T11:43:24.503Z,101169.19
2022-12-05T11:46:01.449Z,101180.03
2022-12-05T11:48:58.926Z,101175.00
2022-12-05T11:51:38.715Z,101182.91
2022-12-05T11:55:14.395Z,101176.88
2022-12-05T11:57:52.994Z,101170.81
2022-12-05T12:00:25.772Z,101174.81
2022-12-05T12:03:36.097Z,101162.31
2022-12-05T12:06:19.789Z,101161.06
2022-12-05T12:08:59.612Z,101161.00
2022-12-05T12:11:33.576Z,101159.59
2022-12-05T12:14:09.113Z,101157.06
2022-12-05T12:16:44.111Z,101156.03
2022-12-05T12:19:30.452Z,101150.16
2022-12-05T12:22:10.362Z,101151.63
2022-12-05T12:24:59.439Z,101155.94
2022-12-05T12:27:38.807Z,101157.03
2022-12-05T12:30:15.027Z,101156.00
2022-12-05T12:32:54.477Z,101160.19
2022-12-05T12:35:30.786Z,101151.63
2022-12-05T12:38:38.438Z,101154.56
2022-12-05T12:41:14.283Z,101158.69
2022-12-05T12:43:54.088Z,101144.34
2022-12-05T12:46:39.190Z,101143.47
2022-12-05T12:49:21.082Z,101136.59
2022-12-05T12:51:53.701Z,101140.78
2022-12-05T12:55:03.285Z,101138.06
2022-12-05T12:57:56.251Z,101125.78
2022-12-05T13:00:32.590Z,101124.97
2022-12-05T13:03:11.075Z,101131.00
2022-12-05T13:05:43.783Z,101124.53
2022-12-05T13:08:17.855Z,101122.88
2022-12-05T13:10:49.054Z,101113.06
2022-12-05T13:13:21.734Z,101121.81
2022-12-05T13:15:52.665Z,101122.88
2022-12-05T13:18:24.479Z,101123.44
2022-12-05T13:20:55.344Z,101123.03
2022-12-05T13:23:26.568Z,101133.25
2022-12-05T13:25:57.377Z,101128.25
2022-12-05T13:28:29.856Z,101129.91
2022-12-05T13:31:01.633Z,101135.09
2022-12-05T13:33:35.311Z,101132.63
2022-12-05T13:36:28.472Z,101128.00
2022-12-05T13:39:19.075Z,101133.44
2022-12-05T13:42:05.901Z,101139.09
2022-12-05T13:44:39.379Z,101130.09
2022-12-05T13:47:10.234Z,101137.19
2022-12-05T13:49:46.249Z,101137.19
2022-12-05T13:52:19.467Z,101126.34
2022-12-05T13:54:55.417Z,101130.72
2022-12-05T13:58:03.136Z,101122.19
2022-12-05T14:00:33.667Z,101131.31
2022-12-05T14:03:04.659Z,101134.47
2022-12-05T14:05:57.898Z,101134.72
2022-12-05T14:08:53.484Z,101132.81
2022-12-05T14:11:21.500Z,101132.19
2022-12-05T14:13:49.522Z,101132.34
2022-12-05T14:16:45.713Z,101130.50
2022-12-05T14:19:35.643Z,101137.59
2022-12-05T14:22:18.044Z,101139.47
2022-12-05T14:24:55.927Z,101140.44
2022-12-05T14:27:42.135Z,101137.19
2022-12-05T14:30:22.616Z,101140.94
2022-12-05T14:32:53.935Z,101143.06
2022-12-05T14:35:28.638Z,101143.06
2022-12-05T14:38:00.118Z,101132.22
2022-12-05T14:40:32.908Z,101127.84
2022-12-05T14:43:03.317Z,101135.75
2022-12-05T14:45:36.097Z,101133.06
2022-12-05T14:48:06.731Z,101135.97
2022-12-05T14:50:44.036Z,101136.38
2022-12-05T14:53:35.353Z,101136.81
2022-12-05T14:56:19.598Z,101128.44
2022-12-05T14:58:51.874Z,101129.13
2022-12-05T15:01:23.411Z,101128.00
2022-12-05T15:04:18.791Z,101132.81
2022-12-05T15:06:51.810Z,101127.19
2022-12-05T15:09:45.271Z,101119.66
2022-12-05T15:12:17.561Z,101117.16
2022-12-05T15:14:51.354Z,101128.84
2022-12-05T15:17:26.686Z,101127.81
2022-12-05T15:20:03.794Z,101123.19
2022-12-05T15:22:36.087Z,101124.66
2022-12-05T15:25:26.742Z,101130.50
2022-12-05T15:27:58.718Z,101136.13
2022-12-05T15:30:27.404Z,101144.50
2022-12-05T15:32:59.470Z,101144.88
2022-12-05T15:35:32.953Z,101148.22
2022-12-05T15:38:06.343Z,101142.56
2022-12-05T15:40:37.906Z,101145.84
2022-12-05T15:43:28.911Z,101148.59
2022-12-05T15:46:11.244Z,101155.94
2022-12-05T15:48:39.283Z,101151.56
2022-12-05T15:51:07.460Z,101152.38
2022-12-05T15:53:41.600Z,101148.00
2022-12-05T15:56:16.192Z,101154.72
2022-12-05T15:58:49.917Z,101155.06
2022-12-05T16:01:21.803Z,101153.22
2022-12-05T16:03:56.527Z,101149.44
2022-12-05T16:06:29.896Z,101153.81
2022-12-05T16:08:59.589Z,101152.38
2022-12-05T16:11:29.189Z,101159.25
2022-12-05T16:13:59.841Z,101152.34
2022-12-05T16:16:33.071Z,101152.97
2022-12-05T16:19:05.298Z,101152.38
2022-12-05T16:21:38.885Z,101150.94
2022-12-05T16:24:09.429Z,101141.97
2022-12-05T16:26:40.968Z,101144.69
2022-12-05T16:29:28.119Z,101140.09
2022-12-05T16:31:57.400Z,101153.41
2022-12-05T16:34:27.278Z,101145.72
2022-12-05T16:36:58.033Z,101137.59
2022-12-05T16:39:28.152Z,101140.91
2022-12-05T16:41:57.964Z,101145.91
2022-12-05T16:45:01.861Z,101133.19
2022-12-05T16:47:56.139Z,101143.19
2022-12-05T16:50:27.151Z,101136.50
2022-12-05T16:53:02.566Z,101132.56
2022-12-05T16:55:37.269Z,101140.31
2022-12-05T16:58:09.749Z,101134.88
2022-12-05T17:00:37.434Z,101135.72
2022-12-05T17:03:32.418Z,101128.41
2022-12-05T17:05:53.412Z,101131.31
2022-12-05T17:08:21.444Z,101128.38
2022-12-05T17:10:49.565Z,101129.88
2022-12-05T17:13:20.226Z,101125.69
2022-12-05T17:15:48.273Z,101133.03
2022-12-05T17:18:17.856Z,101129.25
2022-12-05T17:20:49.535Z,101130.06
2022-12-05T17:23:17.810Z,101132.34
2022-12-05T17:25:49.656Z,101133.22
2022-12-05T17:28:19.070Z,101128.84
2022-12-05T17:30:46.926Z,101135.72
2022-12-05T17:33:16.431Z,101123.84
2022-12-05T17:35:44.612Z,101127.59
2022-12-05T17:38:12.386Z,101126.31
2022-12-05T17:40:40.963Z,101127.16
2022-12-05T17:43:11.193Z,101129.03
2022-12-05T17:45:40.486Z,101136.53
2022-12-05T17:48:13.057Z,101130.25
2022-12-05T17:50:41.850Z,101131.50
2022-12-05T17:53:13.494Z,101134.41
2022-12-05T17:55:42.390Z,101131.72
2022-12-05T17:58:10.783Z,101134.25
2022-12-05T18:00:40.428Z,101135.28
2022-12-05T18:03:08.498Z,101131.53
2022-12-05T18:05:36.988Z,101130.47
2022-12-05T18:08:05.047Z,101132.13
2022-12-05T18:10:32.964Z,101128.56
2022-12-05T18:13:00.839Z,101126.72
2022-12-05T18:15:28.796Z,101127.53
2022-12-05T18:17:58.510Z,101124.00
2022-12-05T18:20:27.498Z,101124.81
2022-12-05T18:22:55.372Z,101120.84
2022-12-05T18:25:23.665Z,101121.06
2022-12-05T18:27:51.515Z,101127.09
2022-12-05T18:30:19.693Z,101121.66
2022-12-05T18:32:47.755Z,101116.88
2022-12-05T18:35:17.261Z,101122.06
2022-12-05T18:37:45.136Z,101126.44
2022-12-05T18:40:14.020Z,101126.22
2022-12-05T18:42:41.896Z,101131.66
2022-12-05T18:45:11.077Z,101132.63
2022-12-05T18:47:38.978Z,101136.03
2022-12-05T18:50:08.245Z,101137.25
2022-12-05T18:52:37.953Z,101132.63
2022-12-05T18:55:17.355Z,101130.94
2022-12-05T18:57:45.669Z,101130.72
2022-12-05T19:00:14.485Z,101136.72
2022-12-05T19:02:42.527Z,101136.75
2022-12-05T19:05:10.502Z,101129.88
2022-12-05T19:07:39.951Z,101130.72
2022-12-05T19:10:09.524Z,101134.25
2022-12-05T19:12:37.679Z,101131.16
2022-12-05T19:15:06.690Z,101137.19
2022-12-05T19:17:35.789Z,101135.31
2022-12-05T19:20:03.835Z,101138.84
2022-12-05T19:22:31.902Z,101144.28
2022-12-05T19:25:03.360Z,101143.22
2022-12-05T19:27:31.446Z,101141.88
2022-12-05T19:29:59.718Z,101141.41
2022-12-05T19:32:28.999Z,101137.03
2022-12-05T19:34:57.226Z,101137.88
2022-12-05T19:37:25.365Z,101135.59
2022-12-05T19:39:53.727Z,101137.31
2022-12-05T19:42:22.922Z,101135.22
2022-12-05T19:44:50.804Z,101125.34
2022-12-05T19:47:18.657Z,101131.19
2022-12-05T19:49:46.645Z,101138.72
2022-12-05T19:52:17.962Z,101134.56
2022-12-05T19:54:46.269Z,101143.44
2022-12-05T19:57:14.228Z,101138.22
2022-12-05T19:59:43.522Z,101145.50
2022-12-05T20:02:11.473Z,101147.97
2022-12-05T20:04:39.481Z,101149.47
2022-12-05T20:07:07.324Z,101145.78
2022-12-05T20:09:37.646Z,101153.66
2022-12-05T20:12:06.047Z,101149.03
2022-12-05T20:14:34.832Z,101145.66
2022-12-05T20:17:05.414Z,101149.44
2022-12-05T20:19:33.519Z,101144.88
2022-12-05T20:22:01.485Z,101148.88
2022-12-05T20:24:29.560Z,101148.72
2022-12-05T20:26:57.544Z,101139.91
2022-12-05T20:29:25.628Z,101144.88
2022-12-05T20:31:56.829Z,101144.25
2022-12-05T20:34:26.250Z,101140.00
2022-12-05T20:36:54.118Z,101142.56
2022-12-05T20:39:22.078Z,101148.63
2022-12-05T20:41:50.817Z,101142.56
2022-12-05T20:44:18.941Z,101135.06
2022-12-05T20:46:46.906Z,101130.94
2022-12-05T20:49:15.095Z,101138.34
2022-12-05T20:51:45.921Z,101136.06
2022-12-05T20:54:16.766Z,101139.41
2022-12-05T20:56:45.444Z,101138.03
2022-12-05T20:59:14.951Z,101140.28
2022-12-05T21:01:43.105Z,101142.59
2022-12-05T21:04:12.732Z,101133.53
2022-12-05T21:06:43.809Z,101138.47
2022-12-05T21:09:18.669Z,101127.22
2022-12-05T21:11:46.778Z,101134.31
2022-12-05T21:14:14.937Z,101132.81
2022-12-05T21:16:42.909Z,101139.53
2022-12-05T21:19:10.881Z,101134.16
2022-12-05T21:21:39.058Z,101140.47
2022-12-05T21:24:08.248Z,101134.03
2022-12-05T21:26:37.649Z,101132.16
2022-12-05T21:29:06.949Z,101133.81
2022-12-05T21:31:37.454Z,101133.38
2022-12-05T21:34:07.802Z,101132.22
2022-12-05T21:36:37.526Z,101126.19
2022-12-05T21:39:06.839Z,101124.34
2022-12-05T21:41:34.933Z,101125.75
2022-12-05T21:44:04.503Z,101123.63
2022-12-05T21:46:32.523Z,101123.88
2022-12-05T21:49:00.477Z,101121.84
2022-12-05T21:51:28.434Z,101121.25
2022-12-05T21:53:56.162Z,101124.28
2022-12-05T21:56:25.363Z,101136.22
2022-12-05T21:58:54.089Z,101140.00
2022-12-05T22:01:25.117Z,101135.47
2022-12-05T22:03:54.389Z,101140.00
2022-12-05T22:06:22.169Z,101134.56
2022-12-05T22:08:50.338Z,101138.38
2022-12-05T22:11:20.138Z,101134.59
2022-12-05T22:13:49.852Z,101136.69
2022-12-05T22:16:18.987Z,101133.03
2022-12-05T22:18:48.560Z,101133.78
2022-12-05T22:21:18.771Z,101132.94
2022-12-05T22:23:47.056Z,101136.34
2022-12-05T22:26:17.095Z,101131.53
2022-12-05T22:28:45.543Z,101134.91
2022-12-05T22:31:16.072Z,101127.41
2022-12-05T22:33:44.760Z,101129.28
2022-12-05T22:36:16.826Z,101117.16
2022-12-05T22:38:48.073Z,101107.38
2022-12-05T22:41:17.570Z,101108.63
2022-12-05T22:43:47.283Z,101106.59
2022-12-05T22:46:17.718Z,101097.22
2022-12-05T22:48:46.184Z,101099.84
2022-12-05T22:51:16.517Z,101102.56
2022-12-05T22:53:45.013Z,101102.81
2022-12-05T22:56:15.014Z,101090.06
2022-12-05T22:58:43.595Z,101087.59
2022-12-05T23:01:14.020Z,101079.91
2022-12-05T23:03:42.627Z,101079.78
2022-12-05T23:06:12.303Z,101072.63
2022-12-05T23:08:42.627Z,101073.91
2022-12-05T23:11:11.443Z,101073.94
2022-12-05T23:13:40.523Z,101076.78
2022-12-05T23:16:09.972Z,101078.03
2022-12-05T23:18:47.775Z,101079.09
2022-12-05T23:21:17.781Z,101065.78
2022-12-05T23:23:47.439Z,101073.94
2022-12-05T23:26:17.847Z,101068.94
2022-12-05T23:28:45.301Z,101066.66
2022-12-05T23:31:14.047Z,101074.22
2022-12-05T23:33:42.538Z,101072.09
2022-12-05T23:36:12.002Z,101071.41
2022-12-05T23:38:41.337Z,101062.91
2022-12-05T23:41:14.451Z,101063.06
2022-12-05T23:43:43.242Z,101060.81
2022-12-05T23:46:12.173Z,101059.59
2022-12-05T23:48:40.196Z,101059.16
2022-12-05T23:51:10.489Z,101049.97
2022-12-05T23:53:39.722Z,101053.16
2022-12-05T23:56:11.462Z,101053.97
2022-12-05T23:58:39.380Z,101046.41
